PWSweather.com
Personal Weather Stations
Station Observations
KAZTUCSO57
Countryside Manor, Tucson, AZ 85742

Countryside ManorTucson, AZ 85742

Lat: 32.3692, Lon: -111.066

Elevation: 2307

Station Type: Davis VP Pro+ 6163

http://frogville.us

Latest ConditionsUpdated 10:20:01 PM MST Wednesday, Jun 26, 2019
Currently Today's Max Today's Min Today's Average
Temperature 88.2°F31.2°C 103.7°F39.8°C 67.2°F19.6°C 88.1°F31.2°C
Dew Point 48.0°F8.9°C 48.4°F9.1°C 37.2°F2.9°C 41.4°F5.2°C
Winds Calm Calm 6.9 mph -11.1 kmh - - 1.8 mph 2.9 kmh
Wind Gusts 2.3 mph3.7 kmh 11.5 mph18.5 kmh - -
Humidity 25% 36% 11% 21%
Pressure 29.79 in1008.8 mb 29.82 in1009.8 mb 29.68 in1005.1 mb -
Hour Temp Dew Point Humidity Winds Wind Gusts Pressure Precip Precip Rate Daily Precip Total
10:20 PM 88.2°F31.2°C 48.0°F8.9°C 25% Calm Calm 2.3 mph3.7 kmh 29.79 in1008.8 mb - 0.00 in0.0 mm 0.00 in0.0 mm
10:10 PM 88.7°F31.5°C 48.4°F9.1°C 25% 1.2 mph W1.9 kmh W 3.5 mph5.6 kmh 29.78 in1008.5 mb - 0.00 in0.0 mm 0.00 in0.0 mm
10:00 PM 89.1°F31.7°C 47.6°F8.7°C 24% 2.3 mph SW3.7 kmh SW 6.9 mph11.1 kmh 29.78 in1008.5 mb - 0.00 in0.0 mm 0.00 in0.0 mm
09:50 PM 89.6°F32.0°C 48.0°F8.9°C 24% 3.5 mph W5.6 kmh W 5.8 mph9.3 kmh 29.77 in1008.1 mb - 0.00 in0.0 mm 0.00 in0.0 mm
09:40 PM 90.1°F32.3°C 47.3°F8.5°C 23% 3.5 mph SW5.6 kmh SW 3.5 mph5.6 kmh 29.77 in1008.1 mb - 0.00 in0.0 mm 0.00 in0.0 mm
09:30 PM 90.6°F32.6°C 47.7°F8.7°C 23% 2.3 mph WSW3.7 kmh WSW 3.5 mph5.6 kmh 29.77 in1008.1 mb - 0.00 in0.0 mm 0.00 in0.0 mm
09:20 PM 91.1°F32.8°C 47.0°F8.3°C 22% 3.5 mph WSW5.6 kmh WSW 4.6 mph7.4 kmh 29.76 in1007.8 mb - 0.00 in0.0 mm 0.00 in0.0 mm
09:10 PM 91.6°F33.1°C 46.1°F7.8°C 21% 3.5 mph WSW5.6 kmh WSW 4.6 mph7.4 kmh 29.75 in1007.5 mb - 0.00 in0.0 mm 0.00 in0.0 mm
09:00 PM 92.1°F33.4°C 45.2°F7.3°C 20% 2.3 mph WSW3.7 kmh WSW 5.8 mph9.3 kmh 29.75 in1007.5 mb - 0.00 in0.0 mm 0.00 in0.0 mm
08:50 PM 92.6°F33.7°C 44.3°F6.8°C 19% 3.5 mph WSW5.6 kmh WSW 6.9 mph11.1 kmh 29.74 in1007.1 mb - 0.00 in0.0 mm 0.00 in0.0 mm
08:40 PM 93.3°F34.1°C 43.5°F6.4°C 18% 3.5 mph WSW5.6 kmh WSW 5.8 mph9.3 kmh 29.74 in1007.1 mb - 0.00 in0.0 mm 0.00 in0.0 mm
08:30 PM 94.3°F34.6°C 39.5°F4.2°C 15% 4.6 mph WSW7.4 kmh WSW 6.9 mph11.1 kmh 29.73 in1006.8 mb - 0.00 in0.0 mm 0.00 in0.0 mm
08:20 PM 94.8°F34.9°C 38.2°F3.4°C 14% Calm Calm 1.2 mph1.9 kmh 29.73 in1006.8 mb - 0.00 in0.0 mm 0.00 in0.0 mm
08:10 PM 95.2°F35.1°C 38.5°F3.6°C 14% 1.2 mph WSW1.9 kmh WSW 2.3 mph3.7 kmh 29.72 in1006.4 mb - 0.00 in0.0 mm 0.00 in0.0 mm
08:00 PM 95.6°F35.3°C 38.8°F3.8°C 14% 2.3 mph SW3.7 kmh SW 3.5 mph5.6 kmh 29.72 in1006.4 mb - 0.00 in0.0 mm 0.00 in0.0 mm
07:50 PM 96.0°F35.6°C 37.2°F2.9°C 13% 1.2 mph WSW1.9 kmh WSW 2.3 mph3.7 kmh 29.71 in1006.1 mb - 0.00 in0.0 mm 0.00 in0.0 mm
07:40 PM 96.4°F35.8°C 37.5°F3.1°C 13% 2.3 mph SW3.7 kmh SW 3.5 mph5.6 kmh 29.71 in1006.1 mb - 0.00 in0.0 mm 0.00 in0.0 mm
07:30 PM 96.9°F36.1°C 37.9°F3.3°C 13% 2.3 mph SSW3.7 kmh SSW 3.5 mph5.6 kmh 29.71 in1006.1 mb - 0.00 in0.0 mm 0.00 in0.0 mm
07:20 PM 97.3°F36.3°C 38.2°F3.4°C 13% 3.5 mph SW5.6 kmh SW 8.1 mph13.0 kmh 29.71 in1006.1 mb - 0.00 in0.0 mm 0.00 in0.0 mm
07:10 PM 97.7°F36.5°C 38.5°F3.6°C 13% 3.5 mph WSW5.6 kmh WSW 4.6 mph7.4 kmh 29.70 in1005.8 mb - 0.00 in0.0 mm 0.00 in0.0 mm
07:00 PM 98.0°F36.7°C 38.8°F3.8°C 13% 3.5 mph SW5.6 kmh SW 5.8 mph9.3 kmh 29.70 in1005.8 mb - 0.00 in0.0 mm 0.00 in0.0 mm
06:50 PM 98.3°F36.8°C 39.0°F3.9°C 13% 2.3 mph WSW3.7 kmh WSW 3.5 mph5.6 kmh 29.70 in1005.8 mb - 0.00 in0.0 mm 0.00 in0.0 mm
06:40 PM 98.7°F37.1°C 37.3°F2.9°C 12% 5.8 mph SW9.3 kmh SW 8.1 mph13.0 kmh 29.70 in1005.8 mb - 0.00 in0.0 mm 0.00 in0.0 mm
06:30 PM 99.0°F37.2°C 37.5°F3.1°C 12% 5.8 mph SW9.3 kmh SW 8.1 mph13.0 kmh 29.69 in1005.4 mb - 0.00 in0.0 mm 0.00 in0.0 mm
06:20 PM 99.4°F37.4°C 39.9°F4.4°C 13% 4.6 mph SW7.4 kmh SW 5.8 mph9.3 kmh 29.69 in1005.4 mb - 0.00 in0.0 mm 0.00 in0.0 mm
06:10 PM 99.5°F37.5°C 40.0°F4.4°C 13% 5.8 mph SW9.3 kmh SW 10.4 mph16.7 kmh 29.69 in1005.4 mb - 0.00 in0.0 mm 0.00 in0.0 mm
06:00 PM 99.7°F37.6°C 40.1°F4.5°C 13% 4.6 mph SW7.4 kmh SW 4.6 mph7.4 kmh 29.69 in1005.4 mb - 0.00 in0.0 mm 0.00 in0.0 mm
05:50 PM 99.9°F37.7°C 40.3°F4.6°C 13% 3.5 mph SW5.6 kmh SW 5.8 mph9.3 kmh 29.68 in1005.1 mb - 0.00 in0.0 mm 0.00 in0.0 mm
05:40 PM 100.3°F37.9°C 40.6°F4.8°C 13% 4.6 mph WSW7.4 kmh WSW 5.8 mph9.3 kmh 29.68 in1005.1 mb - 0.00 in0.0 mm 0.00 in0.0 mm
05:30 PM 100.5°F38.1°C 40.7°F4.8°C 13% 5.8 mph SW9.3 kmh SW 9.2 mph14.8 kmh 29.68 in1005.1 mb - 0.00 in0.0 mm 0.00 in0.0 mm
05:20 PM 100.8°F38.2°C 38.9°F3.8°C 12% 5.8 mph WSW9.3 kmh WSW 8.1 mph13.0 kmh 29.69 in1005.4 mb - 0.00 in0.0 mm 0.00 in0.0 mm
05:10 PM 100.9°F38.3°C 39.0°F3.9°C 12% 4.6 mph SSW7.4 kmh SSW 8.1 mph13.0 kmh 29.69 in1005.4 mb - 0.00 in0.0 mm 0.00 in0.0 mm
05:00 PM 101.0°F38.3°C 41.1°F5.1°C 13% 4.6 mph W7.4 kmh W 8.1 mph13.0 kmh 29.69 in1005.4 mb - 0.00 in0.0 mm 0.00 in0.0 mm
04:50 PM 101.1°F38.4°C 41.2°F5.1°C 13% 6.9 mph WSW11.1 kmh WSW 11.5 mph18.5 kmh 29.69 in1005.4 mb - 0.00 in0.0 mm 0.00 in0.0 mm
04:40 PM 101.5°F38.6°C 39.4°F4.1°C 12% 4.6 mph SW7.4 kmh SW 6.9 mph11.1 kmh 29.70 in1005.8 mb - 0.00 in0.0 mm 0.00 in0.0 mm
04:30 PM 102.3°F39.1°C 40.1°F4.5°C 12% 4.6 mph SW7.4 kmh SW 6.9 mph11.1 kmh 29.70 in1005.8 mb - 0.00 in0.0 mm 0.00 in0.0 mm
04:20 PM 102.7°F39.3°C 40.4°F4.7°C 12% 3.5 mph SSE5.6 kmh SSE 9.2 mph14.8 kmh 29.70 in1005.8 mb - 0.00 in0.0 mm 0.00 in0.0 mm
04:10 PM 103.3°F39.6°C 38.6°F3.7°C 11% 2.3 mph SW3.7 kmh SW 6.9 mph11.1 kmh 29.70 in1005.8 mb - 0.00 in0.0 mm 0.00 in0.0 mm
04:00 PM 103.4°F39.7°C 40.9°F4.9°C 12% 5.8 mph WSW9.3 kmh WSW 10.4 mph16.7 kmh 29.70 in1005.8 mb - 0.00 in0.0 mm 0.00 in0.0 mm
03:50 PM 102.9°F39.4°C 40.6°F4.8°C 12% 4.6 mph SW7.4 kmh SW 10.4 mph16.7 kmh 29.70 in1005.8 mb - 0.00 in0.0 mm 0.00 in0.0 mm
03:40 PM 102.9°F39.4°C 40.5°F4.7°C 12% 3.5 mph S5.6 kmh S 5.8 mph9.3 kmh 29.71 in1006.1 mb - 0.00 in0.0 mm 0.00 in0.0 mm
03:30 PM 103.1°F39.5°C 40.7°F4.8°C 12% 5.8 mph SSW9.3 kmh SSW 5.8 mph9.3 kmh 29.71 in1006.1 mb - 0.00 in0.0 mm 0.00 in0.0 mm
03:20 PM 103.1°F39.5°C 40.7°F4.8°C 12% 3.5 mph WSW5.6 kmh WSW 9.2 mph14.8 kmh 29.72 in1006.4 mb - 0.00 in0.0 mm 0.00 in0.0 mm
03:10 PM 102.8°F39.3°C 40.4°F4.7°C 12% 2.3 mph SE3.7 kmh SE 3.5 mph5.6 kmh 29.72 in1006.4 mb - 0.00 in0.0 mm 0.00 in0.0 mm
03:00 PM 103.0°F39.4°C 40.6°F4.8°C 12% 3.5 mph SW5.6 kmh SW 3.5 mph5.6 kmh 29.72 in1006.4 mb - 0.00 in0.0 mm 0.00 in0.0 mm
02:50 PM 102.6°F39.2°C 42.4°F5.8°C 13% 2.3 mph SW3.7 kmh SW 3.5 mph5.6 kmh 29.73 in1006.8 mb - 0.00 in0.0 mm 0.00 in0.0 mm
02:40 PM 103.7°F39.8°C 41.1°F5.1°C 12% 4.6 mph SW7.4 kmh SW 6.9 mph11.1 kmh 29.73 in1006.8 mb - 0.00 in0.0 mm 0.00 in0.0 mm
02:30 PM 103.0°F39.4°C 42.7°F5.9°C 13% 4.6 mph SW7.4 kmh SW 9.2 mph14.8 kmh 29.73 in1006.8 mb - 0.00 in0.0 mm 0.00 in0.0 mm
02:20 PM 102.2°F39.0°C 44.0°F6.7°C 14% 2.3 mph W3.7 kmh W 4.6 mph7.4 kmh 29.73 in1006.8 mb - 0.00 in0.0 mm 0.00 in0.0 mm
02:10 PM 102.4°F39.1°C 42.2°F5.7°C 13% 2.3 mph SSE3.7 kmh SSE 3.5 mph5.6 kmh 29.74 in1007.1 mb - 0.00 in0.0 mm 0.00 in0.0 mm
02:00 PM 101.7°F38.7°C 43.6°F6.4°C 14% 2.3 mph NW3.7 kmh NW 8.1 mph13.0 kmh 29.74 in1007.1 mb - 0.00 in0.0 mm 0.00 in0.0 mm
01:50 PM 100.2°F37.9°C 42.4°F5.8°C 14% 2.3 mph SW3.7 kmh SW 2.3 mph3.7 kmh 29.75 in1007.5 mb - 0.00 in0.0 mm 0.00 in0.0 mm
01:40 PM 100.3°F37.9°C 42.5°F5.8°C 14% 3.5 mph SW5.6 kmh SW 6.9 mph11.1 kmh 29.75 in1007.5 mb - 0.00 in0.0 mm 0.00 in0.0 mm
01:30 PM 100.8°F38.2°C 42.9°F6.1°C 14% 1.2 mph SW1.9 kmh SW 1.2 mph1.9 kmh 29.76 in1007.8 mb - 0.00 in0.0 mm 0.00 in0.0 mm
01:20 PM 101.4°F38.6°C 45.2°F7.3°C 15% 1.2 mph SW1.9 kmh SW 6.9 mph11.1 kmh 29.76 in1007.8 mb - 0.00 in0.0 mm 0.00 in0.0 mm
01:10 PM 100.9°F38.3°C 43.0°F6.1°C 14% 3.5 mph WSW5.6 kmh WSW 5.8 mph9.3 kmh 29.76 in1007.8 mb - 0.00 in0.0 mm 0.00 in0.0 mm
01:00 PM 99.7°F37.6°C 43.8°F6.6°C 15% 3.5 mph SW5.6 kmh SW 5.8 mph9.3 kmh 29.76 in1007.8 mb - 0.00 in0.0 mm 0.00 in0.0 mm
12:50 PM 99.0°F37.2°C 45.0°F7.2°C 16% 1.2 mph WSW1.9 kmh WSW 2.3 mph3.7 kmh 29.77 in1008.1 mb - 0.00 in0.0 mm 0.00 in0.0 mm
12:40 PM 98.7°F37.1°C 44.7°F7.1°C 16% 3.5 mph SSW5.6 kmh SSW 6.9 mph11.1 kmh 29.77 in1008.1 mb - 0.00 in0.0 mm 0.00 in0.0 mm
12:30 PM 98.1°F36.7°C 45.8°F7.7°C 17% 2.3 mph WSW3.7 kmh WSW 3.5 mph5.6 kmh 29.77 in1008.1 mb - 0.00 in0.0 mm 0.00 in0.0 mm
12:20 PM 98.2°F36.8°C 44.3°F6.8°C 16% 2.3 mph SW3.7 kmh SW 4.6 mph7.4 kmh 29.78 in1008.5 mb - 0.00 in0.0 mm 0.00 in0.0 mm
12:10 PM 98.7°F37.1°C 44.7°F7.1°C 16% 4.6 mph SW7.4 kmh SW 5.8 mph9.3 kmh 29.79 in1008.8 mb - 0.00 in0.0 mm 0.00 in0.0 mm
12:00 PM 99.4°F37.4°C 45.3°F7.4°C 16% 2.3 mph WSW3.7 kmh WSW 3.5 mph5.6 kmh 29.79 in1008.8 mb - 0.00 in0.0 mm 0.00 in0.0 mm
11:50 AM 99.2°F37.3°C 45.1°F7.3°C 16% 1.2 mph WSW1.9 kmh WSW 3.5 mph5.6 kmh 29.79 in1008.8 mb - 0.00 in0.0 mm 0.00 in0.0 mm
11:40 AM 98.6°F37.0°C 44.7°F7.1°C 16% 2.3 mph SW3.7 kmh SW 9.2 mph14.8 kmh 29.80 in1009.1 mb - 0.00 in0.0 mm 0.00 in0.0 mm
11:30 AM 97.4°F36.3°C 45.3°F7.4°C 17% Calm Calm 2.3 mph3.7 kmh 29.80 in1009.1 mb - 0.00 in0.0 mm 0.00 in0.0 mm
11:20 AM 96.5°F35.8°C 43.0°F6.1°C 16% 3.5 mph SSW5.6 kmh SSW 5.8 mph9.3 kmh 29.80 in1009.1 mb - 0.00 in0.0 mm 0.00 in0.0 mm
11:10 AM 95.0°F35.0°C 44.9°F7.2°C 18% 1.2 mph NNE1.9 kmh NNE 4.6 mph7.4 kmh 29.80 in1009.1 mb - 0.00 in0.0 mm 0.00 in0.0 mm
11:00 AM 94.7°F34.8°C 43.1°F6.2°C 17% 3.5 mph SSW5.6 kmh SSW 5.8 mph9.3 kmh 29.80 in1009.1 mb - 0.00 in0.0 mm 0.00 in0.0 mm
10:50 AM 93.9°F34.4°C 43.9°F6.6°C 18% 1.2 mph W1.9 kmh W 2.3 mph3.7 kmh 29.80 in1009.1 mb - 0.00 in0.0 mm 0.00 in0.0 mm
10:40 AM 93.4°F34.1°C 42.1°F5.6°C 17% 1.2 mph S1.9 kmh S 2.3 mph3.7 kmh 29.81 in1009.5 mb - 0.00 in0.0 mm 0.00 in0.0 mm
10:30 AM 92.9°F33.8°C 43.1°F6.2°C 18% Calm Calm 2.3 mph3.7 kmh 29.80 in1009.1 mb - 0.00 in0.0 mm 0.00 in0.0 mm
10:20 AM 92.4°F33.6°C 42.7°F5.9°C 18% 1.2 mph SE1.9 kmh SE 2.3 mph3.7 kmh 29.81 in1009.5 mb - 0.00 in0.0 mm 0.00 in0.0 mm
10:10 AM 91.8°F33.2°C 43.7°F6.5°C 19% 1.2 mph SW1.9 kmh SW 3.5 mph5.6 kmh 29.81 in1009.5 mb - 0.00 in0.0 mm 0.00 in0.0 mm
10:00 AM 91.1°F32.8°C 45.7°F7.6°C 21% 1.2 mph SW1.9 kmh SW 3.5 mph5.6 kmh 29.81 in1009.5 mb - 0.00 in0.0 mm 0.00 in0.0 mm
09:50 AM 90.6°F32.6°C 44.0°F6.7°C 20% Calm Calm 1.2 mph1.9 kmh 29.81 in1009.5 mb - 0.00 in0.0 mm 0.00 in0.0 mm
09:40 AM 90.7°F32.6°C 42.8°F6.0°C 19% 2.3 mph S3.7 kmh S 2.3 mph3.7 kmh 29.81 in1009.5 mb - 0.00 in0.0 mm 0.00 in0.0 mm
09:30 AM 90.2°F32.3°C 43.7°F6.5°C 20% Calm Calm 1.2 mph1.9 kmh 29.81 in1009.5 mb - 0.00 in0.0 mm 0.00 in0.0 mm
09:20 AM 89.7°F32.1°C 43.3°F6.3°C 20% Calm Calm 1.2 mph1.9 kmh 29.81 in1009.5 mb - 0.00 in0.0 mm 0.00 in0.0 mm
09:10 AM 89.2°F31.8°C 44.1°F6.7°C 21% Calm Calm 6.9 mph11.1 kmh 29.81 in1009.5 mb - 0.00 in0.0 mm 0.00 in0.0 mm
09:00 AM 88.2°F31.2°C 43.4°F6.3°C 21% 1.2 mph S1.9 kmh S 2.3 mph3.7 kmh 29.82 in1009.8 mb - 0.00 in0.0 mm 0.00 in0.0 mm
08:50 AM 87.4°F30.8°C 42.7°F5.9°C 21% 1.2 mph E1.9 kmh E 1.2 mph1.9 kmh 29.81 in1009.5 mb - 0.00 in0.0 mm 0.00 in0.0 mm
08:40 AM 86.5°F30.3°C 43.1°F6.2°C 22% 1.2 mph SE1.9 kmh SE 3.5 mph5.6 kmh 29.82 in1009.8 mb - 0.00 in0.0 mm 0.00 in0.0 mm
08:30 AM 85.5°F29.7°C 43.5°F6.4°C 23% 1.2 mph SE1.9 kmh SE 3.5 mph5.6 kmh 29.82 in1009.8 mb - 0.00 in0.0 mm 0.00 in0.0 mm
08:20 AM 84.3°F29.1°C 42.5°F5.8°C 23% 1.2 mph E1.9 kmh E 3.5 mph5.6 kmh 29.82 in1009.8 mb - 0.00 in0.0 mm 0.00 in0.0 mm
08:10 AM 83.1°F28.4°C 42.5°F5.8°C 24% 1.2 mph NE1.9 kmh NE 3.5 mph5.6 kmh 29.82 in1009.8 mb - 0.00 in0.0 mm 0.00 in0.0 mm
08:00 AM 82.0°F27.8°C 41.7°F5.4°C 24% 1.2 mph SE1.9 kmh SE 2.3 mph3.7 kmh 29.82 in1009.8 mb - 0.00 in0.0 mm 0.00 in0.0 mm
07:50 AM 81.2°F27.3°C 40.9°F4.9°C 24% 1.2 mph ESE1.9 kmh ESE 3.5 mph5.6 kmh 29.82 in1009.8 mb - 0.00 in0.0 mm 0.00 in0.0 mm
07:40 AM 80.2°F26.8°C 41.2°F5.1°C 25% 1.2 mph ENE1.9 kmh ENE 3.5 mph5.6 kmh 29.82 in1009.8 mb - 0.00 in0.0 mm 0.00 in0.0 mm
07:30 AM 79.1°F26.2°C 41.3°F5.2°C 26% 1.2 mph ENE1.9 kmh ENE 2.3 mph3.7 kmh 29.82 in1009.8 mb - 0.00 in0.0 mm 0.00 in0.0 mm
07:20 AM 78.0°F25.6°C 41.3°F5.2°C 27% Calm Calm 1.2 mph1.9 kmh 29.81 in1009.5 mb - 0.00 in0.0 mm 0.00 in0.0 mm
07:10 AM 76.7°F24.8°C 40.2°F4.6°C 27% Calm Calm 1.2 mph1.9 kmh 29.81 in1009.5 mb - 0.00 in0.0 mm 0.00 in0.0 mm
07:00 AM 75.5°F24.2°C 40.1°F4.5°C 28% 1.2 mph NE1.9 kmh NE 3.5 mph5.6 kmh 29.81 in1009.5 mb - 0.00 in0.0 mm 0.00 in0.0 mm
06:50 AM 73.8°F23.2°C 40.4°F4.7°C 30% Calm Calm 1.2 mph1.9 kmh 29.81 in1009.5 mb - 0.00 in0.0 mm 0.00 in0.0 mm
06:40 AM 71.8°F22.1°C 41.2°F5.1°C 33% Calm Calm 1.2 mph1.9 kmh 29.81 in1009.5 mb - 0.00 in0.0 mm 0.00 in0.0 mm
06:30 AM 70.6°F21.4°C 40.9°F4.9°C 34% Calm Calm -- 29.80 in1009.1 mb - 0.00 in0.0 mm 0.00 in0.0 mm
06:20 AM 69.1°F20.6°C 39.6°F4.2°C 34% Calm Calm 1.2 mph1.9 kmh 29.80 in1009.1 mb - 0.00 in0.0 mm 0.00 in0.0 mm
06:10 AM 67.9°F19.9°C 39.2°F4.0°C 35% Calm Calm 1.2 mph1.9 kmh 29.80 in1009.1 mb - 0.00 in0.0 mm 0.00 in0.0 mm
06:00 AM 67.4°F19.7°C 38.0°F3.3°C 34% Calm Calm -- 29.79 in1008.8 mb - 0.00 in0.0 mm 0.00 in0.0 mm
05:50 AM 67.2°F19.6°C 37.9°F3.3°C 34% Calm Calm 2.3 mph3.7 kmh 29.79 in1008.8 mb - 0.00 in0.0 mm 0.00 in0.0 mm
05:40 AM 67.2°F19.6°C 37.9°F3.3°C 34% Calm Calm 1.2 mph1.9 kmh 29.79 in1008.8 mb - 0.00 in0.0 mm 0.00 in0.0 mm
05:30 AM 67.4°F19.7°C 38.0°F3.3°C 34% Calm Calm 1.2 mph1.9 kmh 29.79 in1008.8 mb - 0.00 in0.0 mm 0.00 in0.0 mm
05:20 AM 67.7°F19.8°C 38.3°F3.5°C 34% 1.2 mph NE1.9 kmh NE 1.2 mph1.9 kmh 29.79 in1008.8 mb - 0.00 in0.0 mm 0.00 in0.0 mm
05:10 AM 67.9°F19.9°C 38.5°F3.6°C 34% Calm Calm -- 29.78 in1008.5 mb - 0.00 in0.0 mm 0.00 in0.0 mm
05:00 AM 68.3°F20.2°C 38.8°F3.8°C 34% Calm Calm -- 29.78 in1008.5 mb - 0.00 in0.0 mm 0.00 in0.0 mm
04:50 AM 68.6°F20.3°C 39.1°F3.9°C 34% Calm Calm -- 29.77 in1008.1 mb - 0.00 in0.0 mm 0.00 in0.0 mm
04:40 AM 68.7°F20.4°C 40.7°F4.8°C 36% Calm Calm 1.2 mph1.9 kmh 29.77 in1008.1 mb - 0.00 in0.0 mm 0.00 in0.0 mm
04:30 AM 68.8°F20.4°C 40.0°F4.4°C 35% Calm Calm -- 29.77 in1008.1 mb - 0.00 in0.0 mm 0.00 in0.0 mm
04:20 AM 69.0°F20.6°C 39.4°F4.1°C 34% Calm Calm 1.2 mph1.9 kmh 29.77 in1008.1 mb - 0.00 in0.0 mm 0.00 in0.0 mm
04:10 AM 69.2°F20.7°C 38.9°F3.8°C 33% Calm Calm 1.2 mph1.9 kmh 29.77 in1008.1 mb - 0.00 in0.0 mm 0.00 in0.0 mm
04:00 AM 69.3°F20.7°C 38.9°F3.8°C 33% Calm Calm 1.2 mph1.9 kmh 29.76 in1007.8 mb - 0.00 in0.0 mm 0.00 in0.0 mm
03:50 AM 69.4°F20.8°C 39.0°F3.9°C 33% Calm Calm 2.3 mph3.7 kmh 29.76 in1007.8 mb - 0.00 in0.0 mm 0.00 in0.0 mm
03:40 AM 69.7°F20.9°C 39.3°F4.1°C 33% 1.2 mph NNE1.9 kmh NNE 1.2 mph1.9 kmh 29.75 in1007.5 mb - 0.00 in0.0 mm 0.00 in0.0 mm
03:30 AM 70.1°F21.2°C 39.6°F4.2°C 33% Calm Calm 1.2 mph1.9 kmh 29.75 in1007.5 mb - 0.00 in0.0 mm 0.00 in0.0 mm
03:20 AM 70.5°F21.4°C 40.8°F4.9°C 34% Calm Calm 1.2 mph1.9 kmh 29.75 in1007.5 mb - 0.00 in0.0 mm 0.00 in0.0 mm
03:10 AM 71.0°F21.7°C 41.9°F5.5°C 35% Calm Calm -- 29.75 in1007.5 mb - 0.00 in0.0 mm 0.00 in0.0 mm
03:00 AM 71.3°F21.8°C 42.2°F5.7°C 35% Calm Calm -- 29.74 in1007.1 mb - 0.00 in0.0 mm 0.00 in0.0 mm
02:50 AM 71.5°F21.9°C 40.9°F4.9°C 33% Calm Calm 1.2 mph1.9 kmh 29.74 in1007.1 mb - 0.00 in0.0 mm 0.00 in0.0 mm
02:40 AM 71.8°F22.1°C 40.3°F4.6°C 32% Calm Calm -- 29.74 in1007.1 mb - 0.00 in0.0 mm 0.00 in0.0 mm
02:30 AM 72.1°F22.3°C 42.9°F6.1°C 35% Calm Calm -- 29.74 in1007.1 mb - 0.00 in0.0 mm 0.00 in0.0 mm
02:20 AM 72.6°F22.6°C 43.4°F6.3°C 35% Calm Calm -- 29.74 in1007.1 mb - 0.00 in0.0 mm 0.00 in0.0 mm
02:10 AM 73.3°F22.9°C 43.2°F6.2°C 34% Calm Calm -- 29.74 in1007.1 mb - 0.00 in0.0 mm 0.00 in0.0 mm
02:00 AM 74.1°F23.4°C 40.7°F4.8°C 30% Calm Calm -- 29.74 in1007.1 mb - 0.00 in0.0 mm 0.00 in0.0 mm
01:50 AM 75.0°F23.9°C 39.7°F4.3°C 28% Calm Calm -- 29.74 in1007.1 mb - 0.00 in0.0 mm 0.00 in0.0 mm
01:40 AM 75.8°F24.3°C 38.4°F3.6°C 26% Calm Calm -- 29.74 in1007.1 mb - 0.00 in0.0 mm 0.00 in0.0 mm
01:30 AM 76.2°F24.6°C 37.8°F3.2°C 25% Calm Calm -- 29.74 in1007.1 mb - 0.00 in0.0 mm 0.00 in0.0 mm
01:20 AM 76.8°F24.9°C 38.3°F3.5°C 25% Calm Calm -- 29.74 in1007.1 mb - 0.00 in0.0 mm 0.00 in0.0 mm
01:10 AM 77.1°F25.1°C 38.6°F3.7°C 25% Calm Calm -- 29.74 in1007.1 mb - 0.00 in0.0 mm 0.00 in0.0 mm
01:00 AM 77.5°F25.3°C 37.8°F3.2°C 24% Calm Calm -- 29.74 in1007.1 mb - 0.00 in0.0 mm 0.00 in0.0 mm
12:50 AM 78.1°F25.6°C 38.4°F3.6°C 24% Calm Calm 1.2 mph1.9 kmh 29.73 in1006.8 mb - 0.00 in0.0 mm 0.00 in0.0 mm
12:40 AM 78.7°F25.9°C 38.9°F3.8°C 24% Calm Calm -- 29.73 in1006.8 mb - 0.00 in0.0 mm 0.00 in0.0 mm
12:30 AM 79.1°F26.2°C 38.1°F3.4°C 23% Calm Calm -- 29.73 in1006.8 mb - 0.00 in0.0 mm 0.00 in0.0 mm
12:20 AM 79.6°F26.4°C 38.5°F3.6°C 23% Calm Calm 1.2 mph1.9 kmh 29.73 in1006.8 mb - 0.00 in0.0 mm 0.00 in0.0 mm
12:10 AM 80.1°F26.7°C 37.8°F3.2°C 22% Calm Calm 1.2 mph1.9 kmh 29.73 in1006.8 mb - 0.00 in0.0 mm 0.00 in0.0 mm
12:00 AM 80.8°F27.1°C 38.4°F3.6°C 22% Calm Calm 1.2 mph1.9 kmh 29.73 in1006.8 mb - 0.00 in0.0 mm 0.00 in0.0 mm